Time;durP1;ratioP1;P1;durP2;ratioP2;P2;SDS_P1;SDS_P2;PMS_P1;PMS_P2;Temp;Humidity;BMP_temperature;BMP_pressure;BME280_temperature;BME280_humidity;BME280_pressure;Samples;Min_cycle;Max_cycle;Signal;HPM_P1;HPM_P2
2022/12/15 00:40:21;;;;;;;11.20;10.33;;;-6.50;99.90;;;;;;5073847;28;20280;-66
2022/12/15 00:42:47;;;;;;;9.30;8.90;;;-6.60;99.90;;;;;;5055099;28;20252;-66
2022/12/15 00:45:13;;;;;;;11.60;10.90;;;-6.60;99.90;;;;;;5053756;28;20261;-66
2022/12/15 00:47:38;;;;;;;11.10;10.00;;;-6.70;99.90;;;;;;5061653;28;20202;-66
2022/12/15 01:20:17;;;;;;;9.37;8.77;;;-6.80;99.90;;;;;;5055396;28;20589;-66
2022/12/15 01:22:47;;;;;;;11.17;10.53;;;-6.80;99.90;;;;;;5073235;28;20558;-66
2022/12/15 01:25:14;;;;;;;10.23;9.73;;;-6.90;99.90;;;;;;5068621;28;20211;-66
2022/12/15 01:27:40;;;;;;;10.70;9.77;;;-6.90;99.90;;;;;;5053122;28;20233;-66
2022/12/15 01:30:07;;;;;;;9.63;9.23;;;-6.90;99.90;;;;;;5054885;28;20179;-66
2022/12/15 01:32:33;;;;;;;10.70;10.20;;;-6.90;99.90;;;;;;5055145;28;20185;-66
2022/12/15 01:34:59;;;;;;;11.53;10.63;;;-6.90;99.90;;;;;;5070894;28;20739;-66
2022/12/15 01:37:24;;;;;;;8.80;8.40;;;-6.90;99.90;;;;;;5052937;28;20220;-66
2022/12/15 01:42:35;;;;;;;10.70;9.90;;;-6.90;99.90;;;;;;5033196;28;20207;-66
2022/12/15 01:45:22;;;;;;;10.23;9.73;;;-6.80;99.90;;;;;;5034727;28;20673;-66
2022/12/15 01:47:52;;;;;;;10.90;10.07;;;-6.80;99.90;;;;;;5072863;28;20166;-66
2022/12/15 01:50:18;;;;;;;9.77;9.27;;;-6.90;99.90;;;;;;5069490;28;20177;-66
2022/12/15 01:52:46;;;;;;;11.63;10.60;;;-6.90;99.90;;;;;;5053447;28;20190;-66
2022/12/15 01:55:12;;;;;;;10.37;9.63;;;-6.90;99.90;;;;;;5053911;28;20198;-66
2022/12/15 01:57:38;;;;;;;10.20;9.70;;;-6.80;99.90;;;;;;5072777;28;20166;-66
2022/12/15 02:00:07;;;;;;;11.27;10.67;;;-6.80;99.90;;;;;;5056989;28;20531;-66
2022/12/15 02:02:35;;;;;;;10.13;9.47;;;-6.90;99.90;;;;;;5072726;28;20294;-65
2022/12/15 02:05:02;;;;;;;9.53;9.03;;;-6.90;99.90;;;;;;5072927;28;20186;-64
2022/12/15 02:07:28;;;;;;;8.57;8.17;;;-6.80;99.90;;;;;;5052955;28;20179;-64
2022/12/15 02:09:57;;;;;;;10.70;10.07;;;-6.90;99.90;;;;;;5052240;28;20198;-65
2022/12/15 02:12:49;;;;;;;8.47;8.07;;;-6.90;99.90;;;;;;5064734;28;20612;-65
2022/12/15 02:15:21;;;;;;;10.63;9.93;;;-7.00;99.90;;;;;;5052114;28;20190;-65
2022/12/15 02:17:49;;;;;;;9.97;9.43;;;-7.00;99.90;;;;;;5052196;28;20175;-65
2022/12/15 02:20:42;;;;;;;11.87;9.43;;;-7.10;99.90;;;;;;5051752;28;20178;-65
2022/12/15 02:23:46;;;;;;;9.67;9.07;;;-7.10;99.90;;;;;;5032037;28;20634;-65
2022/12/15 02:26:51;;;;;;;9.77;9.00;;;-7.10;99.90;;;;;;5067389;28;20202;-65
2022/12/15 02:29:47;;;;;;;11.43;10.33;;;-7.10;99.90;;;;;;5055348;28;20576;-65
2022/12/15 02:32:17;;;;;;;12.43;11.33;;;-7.00;99.90;;;;;;5051217;28;20159;-65
2022/12/15 02:34:51;;;;;;;9.83;9.33;;;-7.10;99.90;;;;;;5052106;28;20233;-65
2022/12/15 02:37:22;;;;;;;9.73;8.90;;;-7.10;99.90;;;;;;5065388;28;20169;-65
2022/12/15 02:39:48;;;;;;;9.00;8.57;;;-7.10;99.90;;;;;;5053879;28;20178;-65
2022/12/15 02:42:13;;;;;;;10.30;9.77;;;-7.10;99.90;;;;;;5071537;28;20565;-65
2022/12/15 02:44:56;;;;;;;9.90;9.20;;;-6.90;99.90;;;;;;5071713;28;20175;-65
2022/12/15 02:47:33;;;;;;;11.03;10.43;;;-7.00;99.90;;;;;;5071486;28;20166;-65
2022/12/15 02:50:23;;;;;;;9.17;8.67;;;-6.90;99.90;;;;;;5071441;28;20204;-65
2022/12/15 02:52:49;;;;;;;9.67;9.07;;;-7.00;99.90;;;;;;5071200;28;20200;-65
2022/12/15 02:55:42;;;;;;;9.00;8.50;;;-7.00;99.90;;;;;;5071353;28;20194;-65
2022/12/15 02:58:25;;;;;;;10.53;9.93;;;-7.00;99.90;;;;;;5064456;28;20717;-65
2022/12/15 03:01:08;;;;;;;8.87;8.40;;;-7.00;99.90;;;;;;5014429;28;20183;-65
2022/12/15 03:03:36;;;;;;;10.00;9.50;;;-7.10;99.90;;;;;;5051442;28;20199;-65
2022/12/15 03:06:03;;;;;;;8.57;8.07;;;-7.10;99.90;;;;;;5052130;28;20209;-65
2022/12/15 03:08:29;;;;;;;9.53;8.77;;;-7.00;99.90;;;;;;5071467;28;20545;-64
2022/12/15 03:10:56;;;;;;;9.83;9.23;;;-6.90;99.90;;;;;;5071864;28;20170;-68
2022/12/15 03:13:23;;;;;;;10.03;9.60;;;-7.00;99.90;;;;;;5053517;28;20185;-67
2022/12/15 03:15:49;;;;;;;8.20;7.80;;;-7.00;99.90;;;;;;5053538;28;20190;-70
2022/12/15 03:18:15;;;;;;;11.50;9.77;;;-7.00;99.90;;;;;;5072830;28;20261;-69
2022/12/15 03:20:41;;;;;;;22.20;9.00;;;-7.00;99.90;;;;;;5055862;28;20188;-69
2022/12/15 03:23:07;;;;;;;10.13;9.27;;;-7.00;99.90;;;;;;5074241;28;20705;-68
2022/12/15 03:25:32;;;;;;;9.03;8.63;;;-6.90;99.90;;;;;;5055126;28;20209;-70
2022/12/15 03:27:58;;;;;;;9.70;9.20;;;-6.90;99.90;;;;;;5057827;28;20214;-70
2022/12/15 03:30:23;;;;;;;9.53;9.03;;;-6.90;99.90;;;;;;5064506;28;20186;-70
2022/12/15 03:32:49;;;;;;;12.13;11.17;;;-6.90;99.90;;;;;;5055789;28;20690;-69
2022/12/15 03:35:15;;;;;;;11.90;10.27;;;-6.80;99.90;;;;;;5073880;28;20694;-68
2022/12/15 03:37:41;;;;;;;8.57;8.07;;;-6.80;99.90;;;;;;5072658;28;20183;-69
2022/12/15 03:40:09;;;;;;;10.77;10.27;;;-6.80;99.90;;;;;;5073205;28;20170;-68
2022/12/15 03:42:50;;;;;;;9.80;9.30;;;-6.80;99.90;;;;;;5073146;28;20281;-69
2022/12/15 03:45:26;;;;;;;15.60;9.37;;;-6.80;99.90;;;;;;5077279;28;20531;-69
2022/12/15 03:47:53;;;;;;;9.93;9.43;;;-6.80;99.90;;;;;;5063638;28;20174;-70
2022/12/15 03:50:24;;;;;;;9.90;9.40;;;-6.80;99.90;;;;;;5056909;28;20587;-69
2022/12/15 03:52:56;;;;;;;8.97;8.57;;;-6.80;99.90;;;;;;5069382;28;20174;-69
2022/12/15 03:55:22;;;;;;;10.73;10.03;;;-6.90;99.90;;;;;;5076620;28;20275;-69
2022/12/15 03:57:48;;;;;;;9.60;9.17;;;-6.90;99.90;;;;;;5064081;28;20186;-69
2022/12/15 04:00:15;;;;;;;11.40;10.73;;;-7.00;99.90;;;;;;5056787;28;20533;-69
2022/12/15 04:02:41;;;;;;;11.23;10.60;;;-7.00;99.90;;;;;;5067244;28;20684;-70
2022/12/15 04:05:10;;;;;;;12.67;11.77;;;-6.90;99.90;;;;;;5077031;28;20190;-69
2022/12/15 04:07:36;;;;;;;11.93;11.23;;;-6.90;99.90;;;;;;5049146;28;20179;-68
2022/12/15 04:10:02;;;;;;;10.40;9.93;;;-6.90;99.90;;;;;;5056825;28;20163;-70
2022/12/15 04:12:27;;;;;;;13.83;9.87;;;-6.90;99.90;;;;;;5056438;28;20802;-67
2022/12/15 04:14:53;;;;;;;10.93;10.27;;;-7.00;99.90;;;;;;5056358;28;20665;-68
2022/12/15 04:17:19;;;;;;;10.90;10.20;;;-7.00;99.90;;;;;;5063215;28;20178;-70
2022/12/15 04:22:28;;;;;;;12.50;11.80;;;-6.90;99.90;;;;;;5068552;28;20209;-68
2022/12/15 05:33:19;;;;;;;11.90;11.30;;;-6.90;99.90;;;;;;5064247;28;20254;-66
2022/12/15 05:35:45;;;;;;;11.67;10.77;;;-6.80;99.90;;;;;;5052834;28;20644;-66
2022/12/15 05:38:10;;;;;;;10.60;9.90;;;-6.80;99.90;;;;;;5052881;28;20185;-66
2022/12/15 05:40:36;;;;;;;13.17;12.40;;;-6.70;99.90;;;;;;5052787;28;20636;-66
2022/12/15 05:43:02;;;;;;;10.90;10.20;;;-6.50;99.90;;;;;;5052781;28;20274;-66
2022/12/15 05:45:28;;;;;;;10.67;10.03;;;-6.70;99.90;;;;;;5052606;28;20596;-66
2022/12/15 05:47:54;;;;;;;12.40;11.67;;;-6.70;99.90;;;;;;5052737;28;20210;-66
2022/12/15 05:50:20;;;;;;;10.07;9.30;;;-6.70;99.90;;;;;;5052599;28;20175;-66
2022/12/15 05:52:48;;;;;;;10.83;10.10;;;-6.70;99.90;;;;;;5052742;28;20175;-66
2022/12/15 05:55:14;;;;;;;10.27;9.57;;;-6.70;99.90;;;;;;5052514;28;20201;-66
2022/12/15 05:57:40;;;;;;;12.20;9.53;;;-6.70;99.90;;;;;;5052422;28;20183;-66
2022/12/15 06:00:06;;;;;;;10.40;9.93;;;-6.70;99.90;;;;;;5052390;28;20181;-66
2022/12/15 06:02:32;;;;;;;11.43;10.73;;;-6.70;99.90;;;;;;5034587;28;20202;-67
2022/12/15 06:04:58;;;;;;;11.27;10.30;;;-6.70;99.90;;;;;;5052555;28;20240;-66
2022/12/15 06:07:23;;;;;;;11.97;11.33;;;-6.70;99.90;;;;;;5052248;28;20250;-66
2022/12/15 06:09:49;;;;;;;10.40;9.80;;;-6.70;99.90;;;;;;5052307;28;20262;-66
2022/12/15 06:12:15;;;;;;;11.00;10.40;;;-6.70;99.90;;;;;;5034318;28;20174;-66
2022/12/15 06:14:41;;;;;;;11.87;11.07;;;-6.80;99.90;;;;;;5064469;28;20174;-66
2022/12/15 06:17:06;;;;;;;12.07;11.07;;;-6.80;99.90;;;;;;5052215;28;20675;-66
2022/12/15 06:19:32;;;;;;;11.43;10.03;;;-6.80;99.90;;;;;;5051235;28;20636;-66
2022/12/15 06:21:57;;;;;;;11.53;10.50;;;-6.70;99.90;;;;;;5052048;28;20163;-66
2022/12/15 06:24:23;;;;;;;11.00;10.30;;;-6.80;99.90;;;;;;5069859;28;20210;-66
2022/12/15 06:26:49;;;;;;;11.50;10.73;;;-6.80;99.90;;;;;;5071941;28;20193;-66
2022/12/15 06:29:15;;;;;;;12.53;11.53;;;-6.80;99.90;;;;;;5060444;28;20186;-66
2022/12/15 06:31:41;;;;;;;15.27;9.90;;;-6.90;99.90;;;;;;5051909;28;20177;-66
2022/12/15 06:34:11;;;;;;;10.87;9.97;;;-6.90;99.90;;;;;;5062010;28;20261;-66
2022/12/15 06:36:37;;;;;;;12.73;10.43;;;-6.90;99.90;;;;;;5071782;28;20701;-66
2022/12/15 06:39:04;;;;;;;9.80;9.33;;;-7.00;99.90;;;;;;5062544;28;20252;-66
2022/12/15 06:41:30;;;;;;;9.73;9.30;;;-6.90;99.90;;;;;;5051246;28;20190;-66
2022/12/15 06:43:57;;;;;;;10.03;9.27;;;-6.90;99.90;;;;;;5058843;28;20760;-66
2022/12/15 06:46:23;;;;;;;10.40;9.57;;;-6.80;99.90;;;;;;5071584;28;20209;-66
2022/12/15 06:48:49;;;;;;;10.60;10.10;;;-6.80;99.90;;;;;;5065771;28;20171;-66
2022/12/15 06:51:16;;;;;;;11.70;10.13;;;-6.90;99.90;;;;;;5051234;28;20587;-66
2022/12/15 06:53:49;;;;;;;11.97;11.30;;;-6.80;99.90;;;;;;5056369;28;20231;-66
2022/12/15 06:56:28;;;;;;;9.63;9.23;;;-6.80;99.90;;;;;;5053486;28;20202;-66
2022/12/15 06:58:54;;;;;;;11.17;9.60;;;-6.80;99.90;;;;;;5065218;28;20179;-65
2022/12/15 07:01:22;;;;;;;10.23;9.63;;;-6.70;99.90;;;;;;5051088;28;20509;-66
2022/12/15 07:03:48;;;;;;;10.10;9.50;;;-6.80;99.90;;;;;;5055673;28;20198;-66
2022/12/15 07:06:15;;;;;;;10.33;9.90;;;-6.70;99.90;;;;;;5053276;28;20536;-66
2022/12/15 07:08:41;;;;;;;11.07;10.20;;;-6.70;99.90;;;;;;5068443;28;20185;-66
2022/12/15 07:11:09;;;;;;;9.20;8.70;;;-6.70;99.90;;;;;;5051094;28;20193;-66
2022/12/15 07:13:35;;;;;;;11.13;10.57;;;-6.70;99.90;;;;;;5034585;28;20231;-66
2022/12/15 07:16:03;;;;;;;9.83;9.43;;;-6.60;99.90;;;;;;5053386;28;20202;-66
2022/12/15 07:18:29;;;;;;;10.30;9.80;;;-6.50;99.90;;;;;;5052610;28;20209;-66
2022/12/15 07:21:00;;;;;;;10.13;9.40;;;-6.50;99.90;;;;;;5051656;28;20193;-66
2022/12/15 07:23:26;;;;;;;18.67;10.17;;;-6.50;99.90;;;;;;5051418;28;20203;-65
2022/12/15 07:25:52;;;;;;;10.80;10.20;;;-6.50;99.90;;;;;;5053618;28;20648;-65
2022/12/15 07:28:18;;;;;;;11.23;10.17;;;-6.50;99.90;;;;;;5067900;28;20174;-65
2022/12/15 07:30:43;;;;;;;9.63;9.23;;;-6.50;99.90;;;;;;5070694;28;20548;-65
2022/12/15 07:33:09;;;;;;;11.60;9.70;;;-6.50;99.90;;;;;;5071307;28;20228;-65
2022/12/15 07:35:34;;;;;;;9.43;9.03;;;-6.50;99.90;;;;;;5055064;28;20282;-65
2022/12/15 07:38:04;;;;;;;9.17;8.50;;;-6.40;99.90;;;;;;5051036;28;20182;-64
2022/12/15 07:40:29;;;;;;;10.37;9.80;;;-6.30;99.90;;;;;;5065763;28;20182;-65
2022/12/15 07:42:56;;;;;;;10.87;10.17;;;-6.10;99.90;;;;;;5071028;28;20206;-65
2022/12/15 07:45:21;;;;;;;10.67;9.97;;;-6.00;99.90;;;;;;5056896;28;20195;-65
2022/12/15 07:47:49;;;;;;;11.20;10.17;;;-5.80;99.90;;;;;;5051081;28;20181;-65
2022/12/15 07:50:15;;;;;;;14.37;11.20;;;-5.70;99.90;;;;;;5062461;28;20228;-65
2022/12/15 07:52:42;;;;;;;9.13;8.63;;;-5.60;99.90;;;;;;5070967;28;20541;-65
2022/12/15 07:55:07;;;;;;;10.23;9.73;;;-5.50;99.90;;;;;;5060126;28;20202;-64
2022/12/15 07:57:33;;;;;;;10.00;9.20;;;-5.40;99.90;;;;;;5050496;28;20200;-64
2022/12/15 07:59:59;;;;;;;11.43;10.67;;;-5.30;99.90;;;;;;5059117;28;20214;-65
2022/12/15 08:02:24;;;;;;;10.10;9.63;;;-5.20;99.90;;;;;;5070552;28;20174;-65
2022/12/15 08:04:50;;;;;;;11.57;10.80;;;-5.10;99.90;;;;;;5063673;28;20199;-65
2022/12/15 08:07:16;;;;;;;10.60;9.77;;;-5.00;99.90;;;;;;5051795;28;20517;-65
2022/12/15 08:09:41;;;;;;;12.40;11.43;;;-4.90;99.90;;;;;;5070193;28;20259;-65
2022/12/15 08:12:07;;;;;;;13.53;12.33;;;-4.80;99.90;;;;;;5070350;28;20178;-65
2022/12/15 08:14:33;;;;;;;12.00;10.97;;;-4.20;99.90;;;;;;5050714;28;20178;-64
2022/12/15 08:16:59;;;;;;;10.93;10.33;;;-4.60;99.90;;;;;;5050787;28;20179;-62
2022/12/15 08:19:25;;;;;;;10.47;9.83;;;-4.60;99.90;;;;;;5068559;28;20239;-63
2022/12/15 08:21:50;;;;;;;12.00;11.10;;;-4.50;99.90;;;;;;5070468;28;20224;-64
2022/12/15 08:24:18;;;;;;;11.50;10.77;;;-4.40;99.90;;;;;;5052762;28;20293;-63
2022/12/15 08:26:44;;;;;;;13.67;12.53;;;-4.30;99.90;;;;;;5073227;23;20254;-66
2022/12/15 08:29:12;;;;;;;12.33;11.53;;;-4.30;99.90;;;;;;5049948;28;20254;-65
2022/12/15 08:31:38;;;;;;;12.13;11.50;;;-4.20;99.90;;;;;;5052706;28;20190;-66
2022/12/15 08:34:05;;;;;;;11.87;10.83;;;-4.10;99.90;;;;;;5035762;28;20179;-66
2022/12/15 08:36:31;;;;;;;12.70;11.50;;;-4.10;99.90;;;;;;5068253;28;20669;-66
2022/12/15 08:39:01;;;;;;;10.43;9.67;;;-4.00;99.90;;;;;;5059517;28;20198;-66
2022/12/15 08:41:29;;;;;;;10.87;10.20;;;-3.80;99.90;;;;;;5053389;28;20205;-66
2022/12/15 08:43:56;;;;;;;10.13;9.33;;;-3.90;99.90;;;;;;5048226;28;20210;-66
2022/12/15 08:46:28;;;;;;;10.67;9.83;;;-3.90;99.90;;;;;;5073553;28;20190;-66
2022/12/15 08:48:54;;;;;;;26.33;11.67;;;-3.80;99.90;;;;;;5061936;28;20182;-65
2022/12/15 08:51:21;;;;;;;9.50;8.90;;;-3.80;99.90;;;;;;5053293;28;20175;-65
2022/12/15 08:53:47;;;;;;;11.10;10.20;;;-3.80;99.90;;;;;;5063834;28;20178;-66
2022/12/15 08:56:18;;;;;;;12.23;10.90;;;-3.80;99.90;;;;;;5073222;28;20190;-66
2022/12/15 08:58:45;;;;;;;12.00;10.83;;;-3.90;99.90;;;;;;5044826;28;20189;-66
2022/12/15 09:01:17;;;;;;;9.67;9.17;;;-3.80;99.90;;;;;;5052714;28;20656;-66
2022/12/15 09:03:43;;;;;;;11.10;10.40;;;-3.70;99.90;;;;;;5062848;28;20675;-65
2022/12/15 09:06:18;;;;;;;14.87;13.37;;;-3.70;99.90;;;;;;5073378;28;20194;-66
2022/12/15 09:08:44;;;;;;;10.37;9.60;;;-3.60;99.90;;;;;;5031465;28;20177;-65
2022/12/15 09:11:10;;;;;;;16.47;10.43;;;-3.50;99.90;;;;;;5052800;28;20647;-65
2022/12/15 09:13:37;;;;;;;19.53;12.47;;;-3.40;99.90;;;;;;5053345;28;20208;-66
2022/12/15 09:16:06;;;;;;;9.90;9.07;;;-3.40;99.90;;;;;;5073460;28;20253;-66
2022/12/15 09:18:32;;;;;;;9.63;8.90;;;-3.30;99.90;;;;;;5038153;28;20191;-66
2022/12/15 09:21:05;;;;;;;11.00;10.33;;;-3.30;99.90;;;;;;5052345;28;20178;-65
2022/12/15 09:23:32;;;;;;;13.63;11.93;;;-3.20;99.90;;;;;;5068614;28;20216;-66
2022/12/15 09:26:09;;;;;;;13.13;11.90;;;-3.10;99.90;;;;;;5054847;28;20301;-65
2022/12/15 09:28:38;;;;;;;12.43;11.37;;;-3.00;99.90;;;;;;5037977;28;20170;-67
2022/12/15 09:31:06;;;;;;;12.37;11.10;;;-3.00;99.90;;;;;;5052790;28;20254;-67
2022/12/15 09:33:32;;;;;;;11.27;10.13;;;-2.90;99.90;;;;;;5060344;28;20222;-65
2022/12/15 09:35:58;;;;;;;13.07;12.00;;;-3.00;99.90;;;;;;5034711;28;20252;-65
2022/12/15 09:38:24;;;;;;;11.97;10.90;;;-3.10;99.90;;;;;;5067009;28;20182;-66
2022/12/15 09:40:49;;;;;;;12.17;11.10;;;-3.10;99.90;;;;;;5070294;28;20635;-66
2022/12/15 09:43:20;;;;;;;14.93;13.40;;;-3.10;99.90;;;;;;5064844;28;20197;-67
2022/12/15 09:45:50;;;;;;;12.67;11.57;;;-3.20;99.90;;;;;;5062621;28;20198;-66
2022/12/15 09:48:20;;;;;;;13.70;10.67;;;-3.20;99.90;;;;;;5052742;28;20237;-66
2022/12/15 09:50:48;;;;;;;14.33;12.80;;;-3.20;99.90;;;;;;5043442;28;20235;-66
2022/12/15 09:53:16;;;;;;;12.00;11.10;;;-3.10;99.90;;;;;;5054710;28;20169;-67
2022/12/15 09:55:44;;;;;;;15.70;10.50;;;-3.00;99.90;;;;;;5045271;28;20199;-67
2022/12/15 09:58:28;;;;;;;14.03;12.07;;;-3.00;99.90;;;;;;5034530;28;20178;-66
2022/12/15 10:01:07;;;;;;;13.23;11.97;;;-3.00;99.90;;;;;;5062016;28;20190;-66
2022/12/15 10:03:55;;;;;;;12.80;11.70;;;-3.00;99.90;;;;;;5071951;28;20340;-66
2022/12/15 10:06:45;;;;;;;14.57;13.53;;;-3.00;99.90;;;;;;5057078;28;20197;-66
2022/12/15 10:09:23;;;;;;;12.50;11.50;;;-2.90;99.90;;;;;;5037645;28;20178;-66
2022/12/15 10:12:20;;;;;;;11.90;10.93;;;-2.80;99.90;;;;;;5064388;28;20678;-66
2022/12/15 10:15:08;;;;;;;11.57;10.50;;;-3.20;99.90;;;;;;5034163;28;20179;-66
2022/12/15 10:17:49;;;;;;;11.77;9.43;;;-2.80;99.90;;;;;;5042651;28;20183;-66
2022/12/15 10:20:27;;;;;;;11.47;10.37;;;-2.80;99.90;;;;;;5052533;28;20178;-64
2022/12/15 10:22:55;;;;;;;15.23;12.87;;;-2.80;99.90;;;;;;5051897;28;20201;-66
2022/12/15 10:25:23;;;;;;;14.53;12.33;;;-2.70;99.90;;;;;;5053250;28;20206;-66
2022/12/15 10:28:23;;;;;;;17.87;12.53;;;-2.70;99.90;;;;;;5071830;28;20520;-66
2022/12/15 10:30:59;;;;;;;13.30;11.87;;;-2.60;99.90;;;;;;5066401;28;20178;-66
2022/12/15 10:33:30;;;;;;;13.43;11.37;;;-2.60;99.90;;;;;;5051514;28;20236;-67
2022/12/15 10:35:55;;;;;;;12.90;11.60;;;-2.50;99.90;;;;;;5056469;28;20196;-66
2022/12/15 10:38:25;;;;;;;13.50;12.03;;;-2.50;99.90;;;;;;5044414;28;20178;-66
2022/12/15 10:41:07;;;;;;;20.20;10.80;;;-2.40;99.90;;;;;;5054759;28;20182;-66
2022/12/15 10:43:42;;;;;;;11.27;9.37;;;-2.30;99.90;;;;;;5071355;28;20209;-67
2022/12/15 10:46:08;;;;;;;18.33;14.47;;;-2.30;99.90;;;;;;5047445;28;20190;-66
2022/12/15 10:48:35;;;;;;;16.80;13.87;;;-2.30;99.90;;;;;;5051492;28;20228;-66
2022/12/15 10:51:17;;;;;;;14.13;12.10;;;-2.30;99.90;;;;;;5055557;28;20197;-66
2022/12/15 10:53:50;;;;;;;12.57;9.73;;;-2.50;99.90;;;;;;5070785;28;20177;-67
2022/12/15 10:56:24;;;;;;;17.20;13.57;;;-2.20;99.90;;;;;;5071153;28;20197;-66
2022/12/15 10:58:53;;;;;;;14.83;13.23;;;-2.20;99.90;;;;;;5053319;28;20356;-67
2022/12/15 11:01:25;;;;;;;13.50;11.57;;;-2.10;99.90;;;;;;5047309;28;20174;-67
2022/12/15 11:03:52;;;;;;;13.77;11.83;;;-2.00;99.90;;;;;;5033387;28;20233;-67
2022/12/15 11:06:24;;;;;;;12.70;11.27;;;-1.90;99.90;;;;;;5056195;28;20269;-67
2022/12/15 11:08:54;;;;;;;16.03;13.03;;;-1.80;99.90;;;;;;5070853;28;20646;-66
2022/12/15 11:14:22;;;;;;;22.83;13.90;;;-1.60;99.90;;;;;;5062640;28;20185;-66
2022/12/15 11:16:58;;;;;;;12.97;10.83;;;-1.70;99.90;;;;;;5060035;28;20197;-66
2022/12/15 11:19:29;;;;;;;24.90;13.67;;;-1.70;99.90;;;;;;5052996;28;20446;-67
2022/12/15 11:22:01;;;;;;;19.53;12.43;;;-1.70;99.90;;;;;;5061653;28;20166;-66
2022/12/15 11:24:42;;;;;;;20.23;13.83;;;-1.60;99.90;;;;;;5051166;28;20686;-67
2022/12/15 11:27:17;;;;;;;13.40;11.43;;;-1.30;99.90;;;;;;5061339;28;20202;-67
2022/12/15 11:30:09;;;;;;;13.80;12.43;;;-1.10;99.90;;;;;;5070915;28;20180;-67
2022/12/15 11:32:37;;;;;;;14.57;13.27;;;-1.10;99.90;;;;;;5069915;28;20174;-66
2022/12/15 11:35:10;;;;;;;16.27;11.83;;;-1.10;99.90;;;;;;5071286;28;20174;-66
2022/12/15 11:37:44;;;;;;;12.47;11.00;;;-1.10;99.90;;;;;;5057665;28;20189;-67
2022/12/15 11:40:37;;;;;;;15.00;10.23;;;-0.80;99.90;;;;;;5051067;28;20171;-66
2022/12/15 11:43:25;;;;;;;13.87;11.73;;;-0.70;99.90;;;;;;5039694;28;20194;-67
2022/12/15 11:46:16;;;;;;;13.97;12.13;;;-1.00;99.90;;;;;;5033280;28;20245;-66
2022/12/15 11:49:11;;;;;;;16.73;12.20;;;-1.40;99.90;;;;;;5042609;28;20170;-66
2022/12/15 11:51:51;;;;;;;23.53;13.03;;;-1.50;99.90;;;;;;5049397;28;20180;-66
2022/12/15 11:54:16;;;;;;;13.77;12.70;;;-1.60;99.90;;;;;;5051359;28;20227;-67
2022/12/15 11:57:13;;;;;;;12.53;11.60;;;-1.70;99.90;;;;;;5036764;28;20194;-65
2022/12/15 11:59:52;;;;;;;15.00;12.50;;;-1.70;99.90;;;;;;5052817;28;20216;-67
2022/12/15 12:02:41;;;;;;;17.03;11.30;;;-1.80;99.90;;;;;;5062694;28;20182;-66
2022/12/15 12:05:25;;;;;;;12.17;11.03;;;-1.80;99.90;;;;;;5066915;28;20247;-66
2022/12/15 12:07:59;;;;;;;12.80;11.77;;;-1.90;99.90;;;;;;5062334;28;20179;-66
2022/12/15 12:10:47;;;;;;;15.80;11.20;;;-2.10;99.90;;;;;;5054318;28;20179;-66
2022/12/15 12:13:46;;;;;;;26.83;12.43;;;-2.10;99.90;;;;;;5068608;28;20546;-67
2022/12/15 12:16:32;;;;;;;17.57;15.37;;;-2.00;99.90;;;;;;5058550;28;20199;-67
2022/12/15 12:19:01;;;;;;;24.03;13.67;;;-1.80;99.90;;;;;;5034580;28;20176;-66
2022/12/15 12:21:36;;;;;;;21.57;14.23;;;-1.80;99.90;;;;;;5034292;28;20183;-67
2022/12/15 12:24:10;;;;;;;23.73;14.20;;;-1.80;99.90;;;;;;5074442;28;20274;-66
2022/12/15 12:26:48;;;;;;;25.63;15.33;;;-1.70;99.90;;;;;;5073811;28;20202;-67
2022/12/15 12:29:22;;;;;;;14.90;12.77;;;-1.70;99.90;;;;;;5036160;28;20205;-67
2022/12/15 12:31:54;;;;;;;23.90;16.83;;;-1.80;99.90;;;;;;5055205;28;20174;-67
2022/12/15 12:34:47;;;;;;;18.40;13.53;;;-1.90;99.90;;;;;;5074249;28;20237;-67
2022/12/15 12:37:41;;;;;;;17.87;12.70;;;-1.90;99.90;;;;;;5064447;28;20582;-67
2022/12/15 12:40:18;;;;;;;29.53;15.00;;;-1.90;99.90;;;;;;5054282;28;20182;-67
2022/12/15 12:42:55;;;;;;;23.10;12.87;;;-1.90;99.90;;;;;;5066974;28;20202;-67
2022/12/15 12:45:46;;;;;;;14.43;12.23;;;-2.00;99.90;;;;;;5053997;28;20193;-67
2022/12/15 12:48:26;;;;;;;13.90;12.53;;;-2.00;99.90;;;;;;5043541;28;20183;-66
2022/12/15 12:51:08;;;;;;;18.73;13.37;;;-2.00;99.90;;;;;;5065979;28;20194;-67
2022/12/15 12:53:33;;;;;;;16.60;12.60;;;-1.90;99.90;;;;;;5057379;28;20585;-67
2022/12/15 12:55:59;;;;;;;17.13;12.73;;;-1.80;99.90;;;;;;5066243;28;20201;-66
2022/12/15 12:58:40;;;;;;;17.80;15.83;;;-1.60;99.90;;;;;;5071006;28;20710;-66
2022/12/15 13:01:17;;;;;;;18.73;11.77;;;-1.40;99.90;;;;;;5064220;28;20174;-67
2022/12/15 13:03:43;;;;;;;14.07;11.17;;;-1.20;99.90;;;;;;5015795;28;20206;-66
2022/12/15 13:06:33;;;;;;;25.33;13.77;;;-1.00;99.90;;;;;;5068654;28;20563;-67
2022/12/15 13:09:22;;;;;;;35.27;14.70;;;-0.60;99.90;;;;;;5053523;28;20539;-67
2022/12/15 13:11:49;;;;;;;25.20;13.50;;;-0.40;99.90;;;;;;5062824;28;20174;-67
2022/12/15 13:14:25;;;;;;;22.30;14.10;;;-0.30;99.90;;;;;;5053262;28;20167;-67
2022/12/15 13:17:00;;;;;;;24.87;15.57;;;-0.20;99.90;;;;;;5052442;28;20198;-67
2022/12/15 13:20:00;;;;;;;24.43;14.10;;;0.00;99.90;;;;;;5051128;28;20167;-67
2022/12/15 13:22:36;;;;;;;21.27;14.77;;;0.10;99.90;;;;;;5053138;28;20171;-67
2022/12/15 13:25:38;;;;;;;17.40;12.80;;;-0.10;99.90;;;;;;5053132;28;20174;-66
2022/12/15 13:28:29;;;;;;;22.80;13.80;;;0.50;99.90;;;;;;5053113;28;20173;-67
2022/12/15 13:31:17;;;;;;;28.60;16.80;;;0.60;99.90;;;;;;5052794;28;20177;-67
2022/12/15 13:33:54;;;;;;;17.17;14.80;;;0.80;99.90;;;;;;5035440;28;20174;-66
2022/12/15 13:36:38;;;;;;;24.23;16.07;;;0.90;99.90;;;;;;5053160;28;20201;-66
2022/12/15 13:39:16;;;;;;;20.50;14.93;;;1.00;99.90;;;;;;5035147;28;20178;-66
2022/12/15 13:41:47;;;;;;;23.47;15.53;;;0.90;99.90;;;;;;5043519;28;20259;-65
2022/12/15 13:44:36;;;;;;;25.47;17.10;;;0.80;99.90;;;;;;5043505;28;20202;-66
2022/12/15 13:47:19;;;;;;;22.73;15.20;;;0.60;99.90;;;;;;5072913;28;20273;-64
2022/12/15 13:50:06;;;;;;;17.47;12.30;;;0.40;99.90;;;;;;5069755;28;20170;-64
2022/12/15 13:52:43;;;;;;;20.90;12.93;;;0.30;99.90;;;;;;5056078;28;20166;-65
2022/12/15 13:55:21;;;;;;;13.73;12.20;;;0.20;99.90;;;;;;5052907;28;20198;-64
2022/12/15 13:58:15;;;;;;;19.27;14.57;;;0.00;99.90;;;;;;5071467;28;20652;-65
2022/12/15 14:00:51;;;;;;;14.60;11.10;;;0.00;99.90;;;;;;5057449;28;20178;-64
2022/12/15 14:03:17;;;;;;;21.77;12.00;;;-0.20;99.90;;;;;;5072311;28;20205;-66
2022/12/15 14:05:56;;;;;;;13.67;12.40;;;-0.40;99.90;;;;;;5053242;28;20731;-67
2022/12/15 14:08:24;;;;;;;14.87;11.40;;;-0.60;99.90;;;;;;5066555;28;20177;-67
2022/12/15 14:10:58;;;;;;;16.13;13.23;;;-0.70;99.90;;;;;;5064829;28;20171;-66
2022/12/15 14:13:28;;;;;;;17.77;12.33;;;-0.90;99.90;;;;;;5054724;28;20581;-67
2022/12/15 14:16:06;;;;;;;17.90;14.87;;;-1.00;99.90;;;;;;5055781;28;20226;-64
2022/12/15 14:18:37;;;;;;;15.10;12.50;;;-1.20;99.90;;;;;;5052104;28;20250;-64
2022/12/15 14:21:19;;;;;;;11.47;10.57;;;-1.30;99.90;;;;;;5052102;28;20584;-65
2022/12/15 14:23:45;;;;;;;17.60;15.90;;;-1.40;99.90;;;;;;5058019;28;20289;-65
2022/12/15 14:26:13;;;;;;;14.47;13.30;;;-1.50;99.90;;;;;;5052325;28;20703;-64
2022/12/15 14:28:41;;;;;;;14.37;12.43;;;-1.60;99.90;;;;;;5036154;28;20171;-66
2022/12/15 14:31:19;;;;;;;11.50;10.50;;;-1.70;99.90;;;;;;5052785;28;20174;-66
2022/12/15 14:33:49;;;;;;;13.67;12.33;;;-1.80;99.90;;;;;;5051987;28;20174;-65
2022/12/15 14:36:16;;;;;;;17.93;11.77;;;-1.80;99.90;;;;;;5067966;28;20746;-65
2022/12/15 14:38:51;;;;;;;22.30;13.60;;;-1.90;99.90;;;;;;5052443;28;20243;-66
2022/12/15 14:41:22;;;;;;;16.03;12.57;;;-2.10;99.90;;;;;;5052205;28;20726;-66
2022/12/15 14:43:49;;;;;;;13.17;12.07;;;-2.10;99.90;;;;;;5046744;28;20206;-66
2022/12/15 14:46:18;;;;;;;13.57;10.93;;;-2.20;99.90;;;;;;5055318;28;20187;-66
2022/12/15 14:48:55;;;;;;;15.77;10.60;;;-2.20;99.90;;;;;;5052935;28;20174;-63
2022/12/15 14:51:22;;;;;;;11.33;9.90;;;-2.30;99.90;;;;;;5035554;28;20448;-64
2022/12/15 14:53:50;;;;;;;13.37;12.17;;;-2.40;99.90;;;;;;5068871;28;20178;-64
2022/12/15 14:56:18;;;;;;;12.43;11.07;;;-2.40;99.90;;;;;;5061053;28;20194;-66
2022/12/15 14:58:55;;;;;;;14.57;13.17;;;-2.50;99.90;;;;;;5051623;28;20217;-67
2022/12/15 15:01:24;;;;;;;14.80;11.93;;;-2.50;99.90;;;;;;5053431;28;20181;-66
2022/12/15 15:04:04;;;;;;;13.77;12.10;;;-2.60;99.90;;;;;;5057445;28;20746;-66
2022/12/15 15:06:38;;;;;;;14.63;13.07;;;-2.70;99.90;;;;;;5070986;28;20197;-66
2022/12/15 15:09:21;;;;;;;12.57;11.67;;;-2.70;99.90;;;;;;5045359;28;20178;-67
2022/12/15 15:11:58;;;;;;;15.47;14.07;;;-2.80;99.90;;;;;;5053483;28;20715;-66
2022/12/15 15:14:31;;;;;;;13.40;12.20;;;-2.80;99.90;;;;;;5060869;28;20186;-66
2022/12/15 15:17:13;;;;;;;10.87;10.07;;;-2.90;99.90;;;;;;5061292;28;20205;-66
2022/12/15 15:19:49;;;;;;;12.70;11.10;;;-3.00;99.90;;;;;;5031135;28;20179;-66
2022/12/15 15:22:57;;;;;;;15.73;13.20;;;-3.10;99.90;;;;;;5046011;28;20174;-66
2022/12/15 15:25:31;;;;;;;12.87;11.60;;;-3.20;99.90;;;;;;5063413;28;20318;-67